createdAt,value
2022-12-02T00:00:31.737Z,23.25
2022-12-02T00:03:32.086Z,27.88
2022-12-02T00:06:18.628Z,27.73
2022-12-02T00:09:26.216Z,34.15
2022-12-02T00:12:26.088Z,27.35
2022-12-02T00:15:37.978Z,28.23
2022-12-02T00:18:22.790Z,25.13
2022-12-02T00:21:03.355Z,25.27
2022-12-02T00:23:56.907Z,30.25
2022-12-02T00:26:43.039Z,31.20
2022-12-02T00:29:17.887Z,27.13
2022-12-02T00:31:59.139Z,27.00
2022-12-02T00:34:43.447Z,27.83
2022-12-02T00:37:29.673Z,32.42
2022-12-02T00:40:18.159Z,28.70
2022-12-02T00:43:35.126Z,28.52
2022-12-02T00:46:35.543Z,31.48
2022-12-02T00:49:15.500Z,35.55
2022-12-02T00:51:58.776Z,31.63
2022-12-02T00:54:49.659Z,38.45
2022-12-02T00:57:35.477Z,34.42
2022-12-02T01:00:19.677Z,32.65
2022-12-02T01:02:58.848Z,34.30
2022-12-02T01:05:43.448Z,30.10
2022-12-02T01:08:48.994Z,34.85
2022-12-02T01:11:47.879Z,27.52
2022-12-02T01:14:29.149Z,28.00
2022-12-02T01:17:11.744Z,23.55
2022-12-02T01:19:56.553Z,26.27
2022-12-02T01:22:53.889Z,24.52
2022-12-02T01:25:34.817Z,25.83
2022-12-02T01:28:12.200Z,31.10
2022-12-02T01:31:07.649Z,27.73
2022-12-02T01:33:58.435Z,28.13
2022-12-02T01:36:46.910Z,29.30
2022-12-02T01:39:23.599Z,25.98
2022-12-02T01:42:09.655Z,27.05
2022-12-02T01:44:46.081Z,24.85
2022-12-02T01:47:27.300Z,25.63
2022-12-02T01:50:12.615Z,22.77
2022-12-02T01:52:54.927Z,24.73
2022-12-02T01:55:51.982Z,25.27
2022-12-02T01:58:47.444Z,29.13
2022-12-02T02:01:33.572Z,23.33
2022-12-02T02:04:16.608Z,27.85
2022-12-02T02:07:00.776Z,22.40
2022-12-02T02:09:44.084Z,23.02
2022-12-02T02:12:22.216Z,24.97
2022-12-02T02:15:01.707Z,25.83
2022-12-02T02:17:46.136Z,23.55
2022-12-02T02:20:25.304Z,22.67
2022-12-02T02:23:20.986Z,18.83
2022-12-02T02:25:58.639Z,23.20
2022-12-02T02:28:50.947Z,24.83
2022-12-02T02:31:27.911Z,20.08
2022-12-02T02:34:05.278Z,21.75
2022-12-02T02:36:48.639Z,25.85
2022-12-02T02:39:33.715Z,22.23
2022-12-02T02:42:22.824Z,26.40
2022-12-02T02:45:06.097Z,20.80
2022-12-02T02:47:55.166Z,20.75
2022-12-02T02:50:41.322Z,22.23
2022-12-02T02:53:37.789Z,21.98
2022-12-02T02:56:28.259Z,25.35
2022-12-02T02:59:46.422Z,19.70
2022-12-02T03:02:35.688Z,24.27
2022-12-02T03:05:22.131Z,27.70
2022-12-02T03:07:59.320Z,22.45
2022-12-02T03:10:39.136Z,23.60
2022-12-02T03:13:24.418Z,20.80
2022-12-02T03:16:13.679Z,26.85
2022-12-02T03:19:00.943Z,21.75
2022-12-02T03:21:37.814Z,20.30
2022-12-02T03:24:17.408Z,28.58
2022-12-02T03:27:03.759Z,25.00
2022-12-02T03:29:45.966Z,27.88
2022-12-02T03:32:22.179Z,28.33
2022-12-02T03:35:05.137Z,24.15
2022-12-02T03:37:52.715Z,24.50
2022-12-02T03:40:31.006Z,26.92
2022-12-02T03:43:24.263Z,25.65
2022-12-02T03:46:08.713Z,25.23
2022-12-02T03:48:52.190Z,24.55
2022-12-02T03:51:43.709Z,27.85
2022-12-02T03:54:32.774Z,26.40
2022-12-02T03:57:13.546Z,30.00
2022-12-02T04:00:02.894Z,23.17
2022-12-02T04:02:52.189Z,28.10
2022-12-02T04:05:49.247Z,26.45
2022-12-02T04:08:31.836Z,29.67
2022-12-02T04:11:18.361Z,35.78
2022-12-02T04:14:00.223Z,29.35
2022-12-02T04:16:55.461Z,29.05
2022-12-02T04:19:34.633Z,28.48
2022-12-02T04:22:12.245Z,29.67
2022-12-02T04:24:50.016Z,26.67
2022-12-02T04:27:37.670Z,33.17
2022-12-02T04:30:36.198Z,27.80
2022-12-02T04:33:13.634Z,30.85
2022-12-02T04:35:55.390Z,27.08
2022-12-02T04:38:43.470Z,33.83
2022-12-02T04:41:29.745Z,31.38
2022-12-02T04:44:18.337Z,30.88
2022-12-02T04:47:09.974Z,26.95
2022-12-02T04:49:46.976Z,21.95
2022-12-02T04:52:31.202Z,30.15
2022-12-02T04:55:07.934Z,31.38
2022-12-02T04:57:53.534Z,30.95
2022-12-02T05:00:36.920Z,26.92
2022-12-02T05:03:10.582Z,28.65
2022-12-02T05:05:43.997Z,26.08
2022-12-02T05:08:18.844Z,28.35
2022-12-02T05:10:52.609Z,33.45
2022-12-02T05:13:26.090Z,33.10
2022-12-02T05:15:59.688Z,37.38
2022-12-02T05:18:33.211Z,27.77
2022-12-02T05:21:07.284Z,30.40
2022-12-02T05:23:42.117Z,30.58
2022-12-02T05:26:15.697Z,33.72
2022-12-02T05:28:49.191Z,28.55
2022-12-02T05:31:22.695Z,32.63
2022-12-02T05:33:56.274Z,28.63
2022-12-02T05:36:29.742Z,27.00
2022-12-02T05:39:04.720Z,26.20
2022-12-02T05:41:38.644Z,30.60
2022-12-02T05:44:21.039Z,26.75
2022-12-02T05:47:00.460Z,30.05
2022-12-02T05:49:35.235Z,32.13
2022-12-02T05:52:20.115Z,32.70
2022-12-02T05:54:56.542Z,28.90
2022-12-02T05:57:31.854Z,28.98
2022-12-02T06:00:15.784Z,27.98
2022-12-02T06:02:51.866Z,32.97
2022-12-02T06:05:27.487Z,29.90
2022-12-02T06:08:16.014Z,39.10
2022-12-02T06:10:53.353Z,34.83
2022-12-02T06:13:28.853Z,33.00
2022-12-02T06:16:02.977Z,34.92
2022-12-02T06:18:37.812Z,35.67
2022-12-02T06:21:15.349Z,29.45
2022-12-02T06:23:51.463Z,33.13
2022-12-02T06:26:30.158Z,33.58
2022-12-02T06:29:06.016Z,23.55
2022-12-02T06:31:43.588Z,25.80
2022-12-02T06:34:32.261Z,28.20
2022-12-02T06:37:15.704Z,31.42
2022-12-02T06:40:19.975Z,36.53
2022-12-02T06:42:50.707Z,30.40
2022-12-02T06:45:29.751Z,29.65
2022-12-02T06:48:19.656Z,34.65
2022-12-02T06:50:53.128Z,27.15
2022-12-02T06:53:44.112Z,23.48
2022-12-02T06:56:29.613Z,28.98
2022-12-02T06:59:15.814Z,31.23
2022-12-02T07:01:54.940Z,25.02
2022-12-02T07:04:48.740Z,28.45
2022-12-02T07:07:34.221Z,30.60
2022-12-02T07:10:15.864Z,28.33
2022-12-02T07:12:53.131Z,33.03
2022-12-02T07:15:34.748Z,24.52
2022-12-02T07:18:15.058Z,27.38
2022-12-02T07:20:50.809Z,27.55
2022-12-02T07:23:27.809Z,29.27
2022-12-02T07:26:21.733Z,34.42
2022-12-02T07:29:15.504Z,32.15
2022-12-02T07:32:01.526Z,30.92
2022-12-02T07:34:39.138Z,32.17
2022-12-02T07:37:28.281Z,36.00
2022-12-02T07:40:06.382Z,32.55
2022-12-02T07:42:54.915Z,30.98
2022-12-02T07:45:34.234Z,27.27
2022-12-02T07:48:16.640Z,32.95
2022-12-02T07:50:50.243Z,41.53
2022-12-02T07:53:23.784Z,27.90
2022-12-02T07:55:58.602Z,33.10
2022-12-02T07:59:03.045Z,33.47
2022-12-02T08:01:26.367Z,33.95
2022-12-02T08:04:01.468Z,30.55
2022-12-02T08:06:39.368Z,35.97
2022-12-02T08:09:13.933Z,28.88
2022-12-02T08:11:47.456Z,29.40
2022-12-02T08:14:21.138Z,24.60
2022-12-02T08:16:54.690Z,25.38
2022-12-02T08:19:29.662Z,29.48
2022-12-02T08:22:03.361Z,28.80
2022-12-02T08:24:36.977Z,28.00
2022-12-02T08:27:10.605Z,28.10
2022-12-02T08:29:44.520Z,27.90
2022-12-02T08:32:18.431Z,27.55
2022-12-02T08:34:53.707Z,30.02
2022-12-02T08:37:27.385Z,35.75
2022-12-02T08:40:00.975Z,32.97
2022-12-02T08:42:34.517Z,31.50
2022-12-02T08:45:08.992Z,34.03
2022-12-02T08:47:42.528Z,44.75
2022-12-02T08:50:18.202Z,34.47
2022-12-02T08:52:56.783Z,33.97
2022-12-02T08:55:32.147Z,25.13
2022-12-02T08:58:05.756Z,30.70
2022-12-02T09:00:40.317Z,34.42
2022-12-02T09:03:14.444Z,28.55
2022-12-02T09:05:49.677Z,25.17
2022-12-02T09:08:23.246Z,37.05
2022-12-02T09:10:57.042Z,32.03
2022-12-02T09:13:30.558Z,28.58
2022-12-02T09:16:04.168Z,35.33
2022-12-02T09:18:37.694Z,30.23
2022-12-02T09:21:12.726Z,32.40
2022-12-02T09:23:50.531Z,31.20
2022-12-02T09:26:24.575Z,25.35
2022-12-02T09:28:58.376Z,28.27
2022-12-02T09:31:34.788Z,36.65
2022-12-02T09:34:08.431Z,29.83
2022-12-02T09:36:43.388Z,34.88
2022-12-02T09:39:17.199Z,33.40
2022-12-02T09:41:50.903Z,30.83
2022-12-02T09:44:25.352Z,32.05
2022-12-02T09:47:00.209Z,33.72
2022-12-02T09:49:34.391Z,28.05
2022-12-02T09:52:15.631Z,33.13
2022-12-02T09:54:49.719Z,33.05
2022-12-02T09:57:27.439Z,29.50
2022-12-02T10:00:01.982Z,28.15
2022-12-02T10:02:44.708Z,32.45
2022-12-02T10:05:20.253Z,32.25
2022-12-02T10:07:58.463Z,33.63
2022-12-02T10:10:38.627Z,29.95
2022-12-02T10:13:15.331Z,29.35
2022-12-02T10:15:50.586Z,33.90
2022-12-02T10:18:27.636Z,34.60
2022-12-02T10:21:01.261Z,33.38
2022-12-02T10:23:54.702Z,29.80
2022-12-02T10:26:28.865Z,32.80
2022-12-02T10:31:37.471Z,28.25
2022-12-02T10:34:21.508Z,27.10
2022-12-02T10:36:56.245Z,32.60
2022-12-02T10:39:37.803Z,37.03
2022-12-02T10:42:21.378Z,40.72
2022-12-02T10:45:12.378Z,32.83
2022-12-02T10:47:49.776Z,27.13
2022-12-02T10:50:24.808Z,33.40
2022-12-02T10:53:01.590Z,33.35
2022-12-02T10:55:36.475Z,27.63
2022-12-02T10:58:17.051Z,28.83
2022-12-02T11:00:50.775Z,30.80
2022-12-02T11:03:25.286Z,29.90
2022-12-02T11:06:00.109Z,35.33
2022-12-02T11:08:33.791Z,29.98
2022-12-02T11:11:13.806Z,28.65
2022-12-02T11:13:54.924Z,35.50
2022-12-02T11:17:03.547Z,36.92
2022-12-02T11:19:45.486Z,44.08
2022-12-02T11:22:51.161Z,33.72
2022-12-02T11:26:05.776Z,32.00
2022-12-02T11:29:18.277Z,31.85
2022-12-02T11:32:19.701Z,30.48
2022-12-02T11:35:17.500Z,37.15
2022-12-02T11:37:49.397Z,35.17
2022-12-02T11:43:43.818Z,30.45
2022-12-02T11:46:19.468Z,30.67
2022-12-02T11:48:56.190Z,41.30
2022-12-02T11:51:40.202Z,37.03
2022-12-02T11:54:15.974Z,37.65
2022-12-02T11:56:49.507Z,31.85
2022-12-02T11:59:26.243Z,30.73
2022-12-02T12:02:10.733Z,30.73
2022-12-02T12:04:46.215Z,31.67
2022-12-02T12:07:19.826Z,30.80
2022-12-02T12:09:59.143Z,29.85
2022-12-02T12:12:32.702Z,34.83
2022-12-02T12:15:07.220Z,33.17
2022-12-02T12:17:47.609Z,32.28
2022-12-02T12:20:47.599Z,32.83
2022-12-02T12:23:35.637Z,32.58
2022-12-02T12:26:10.590Z,37.40
2022-12-02T12:28:44.117Z,33.45
2022-12-02T12:31:17.693Z,37.53
2022-12-02T12:33:51.201Z,40.72
2022-12-02T12:36:26.355Z,38.25
2022-12-02T12:38:59.933Z,34.10
2022-12-02T12:44:32.433Z,33.43
2022-12-02T12:47:07.978Z,36.88
2022-12-02T12:49:41.677Z,36.42
2022-12-02T12:52:16.915Z,38.53
2022-12-02T12:54:51.104Z,36.28
2022-12-02T12:57:25.016Z,44.60
2022-12-02T12:59:58.708Z,40.75
2022-12-02T13:02:32.350Z,43.75
2022-12-02T13:05:06.524Z,38.35
2022-12-02T13:07:41.523Z,38.70
2022-12-02T13:10:15.145Z,40.78
2022-12-02T13:12:50.341Z,44.15
2022-12-02T13:15:23.994Z,36.33
2022-12-02T13:17:57.589Z,40.33
2022-12-02T13:20:31.469Z,45.10
2022-12-02T13:28:13.379Z,36.83
2022-12-02T13:30:47.092Z,41.70
2022-12-02T13:33:20.730Z,39.33
2022-12-02T13:35:54.286Z,44.20
2022-12-02T13:38:29.266Z,38.28
2022-12-02T13:41:02.799Z,39.70
2022-12-02T13:43:36.615Z,51.75
2022-12-02T13:46:10.322Z,42.03
2022-12-02T13:48:47.001Z,43.35
2022-12-02T13:51:21.116Z,41.85
2022-12-02T13:53:59.369Z,43.35
2022-12-02T13:56:34.532Z,43.92
2022-12-02T13:59:08.373Z,44.33
2022-12-02T14:01:44.377Z,35.33
2022-12-02T14:04:24.062Z,40.55
2022-12-02T14:07:06.321Z,44.78
2022-12-02T14:09:51.427Z,52.08
2022-12-02T14:12:29.737Z,41.28
2022-12-02T14:15:03.552Z,36.85
2022-12-02T14:17:37.364Z,41.03
2022-12-02T14:20:11.993Z,37.20
2022-12-02T14:22:48.832Z,36.53
2022-12-02T14:25:25.448Z,39.20
2022-12-02T14:27:59.036Z,45.60
2022-12-02T14:30:32.687Z,42.92
2022-12-02T14:33:09.634Z,37.20
2022-12-02T14:35:45.882Z,42.53
2022-12-02T14:38:21.253Z,37.30
2022-12-02T14:40:56.165Z,42.95
2022-12-02T14:43:29.562Z,45.55
2022-12-02T14:46:03.279Z,37.42
2022-12-02T14:48:37.189Z,35.53
2022-12-02T14:53:49.335Z,37.28
2022-12-02T14:56:24.584Z,42.58
2022-12-02T14:58:58.034Z,45.75
2022-12-02T15:01:31.725Z,47.10
2022-12-02T15:04:06.078Z,41.45
2022-12-02T15:06:39.737Z,50.72
2022-12-02T15:09:13.350Z,52.55
2022-12-02T15:11:48.345Z,47.22
2022-12-02T15:14:22.884Z,46.38
2022-12-02T15:16:57.019Z,39.05
2022-12-02T15:19:32.925Z,41.88
2022-12-02T15:22:09.908Z,42.97
2022-12-02T15:24:43.451Z,52.28
2022-12-02T15:27:18.703Z,47.75
2022-12-02T15:29:52.807Z,51.75
2022-12-02T15:32:26.553Z,50.65
2022-12-02T15:35:00.046Z,44.78
2022-12-02T15:37:38.137Z,40.33
2022-12-02T15:40:13.540Z,45.55
2022-12-02T15:42:51.876Z,45.35
2022-12-02T15:45:25.415Z,55.90
2022-12-02T15:47:58.974Z,50.80
2022-12-02T15:50:32.425Z,58.95
2022-12-02T15:53:05.902Z,54.40
2022-12-02T15:55:39.441Z,59.10
2022-12-02T15:58:14.342Z,45.38
2022-12-02T16:00:48.459Z,42.92
2022-12-02T16:03:22.075Z,52.40
2022-12-02T16:05:55.890Z,46.53
2022-12-02T16:08:29.390Z,49.90
2022-12-02T16:11:02.940Z,48.97
2022-12-02T16:13:37.837Z,49.33
2022-12-02T16:16:11.770Z,50.50
2022-12-02T16:21:19.519Z,55.33
2022-12-02T16:23:53.028Z,52.15
2022-12-02T16:26:26.524Z,49.15
2022-12-02T16:29:01.509Z,50.97
2022-12-02T16:31:35.119Z,50.50
2022-12-02T16:34:08.688Z,52.47
2022-12-02T16:36:42.300Z,51.38
2022-12-02T16:39:15.822Z,59.67
2022-12-02T16:41:49.405Z,53.20
2022-12-02T16:44:25.437Z,49.90
2022-12-02T16:46:58.936Z,49.58
2022-12-02T16:49:32.450Z,52.97
2022-12-02T16:52:07.391Z,51.88
2022-12-02T16:54:40.784Z,55.65
2022-12-02T16:57:14.374Z,56.65
2022-12-02T16:59:49.514Z,53.60
2022-12-02T17:02:27.472Z,48.53
2022-12-02T17:05:05.983Z,53.58
2022-12-02T17:07:42.684Z,54.70
2022-12-02T17:10:16.572Z,56.00
2022-12-02T17:12:50.264Z,63.85
2022-12-02T17:15:25.253Z,50.45
2022-12-02T17:17:58.962Z,43.70
2022-12-02T17:20:35.932Z,46.22
2022-12-02T17:23:10.439Z,48.97
2022-12-02T17:25:44.785Z,46.28
2022-12-02T17:28:25.019Z,45.17
2022-12-02T17:30:59.844Z,43.10
2022-12-02T17:33:33.223Z,43.08
2022-12-02T17:36:14.865Z,39.08
2022-12-02T17:38:57.115Z,41.42
2022-12-02T17:41:36.302Z,49.05
2022-12-02T17:44:16.433Z,56.38
2022-12-02T17:46:51.904Z,66.72
2022-12-02T17:49:27.506Z,51.90
2022-12-02T17:52:21.064Z,46.17
2022-12-02T17:54:55.371Z,54.22
2022-12-02T18:00:02.219Z,55.72
2022-12-02T18:02:41.483Z,39.65
2022-12-02T18:05:17.880Z,42.65
2022-12-02T18:07:51.334Z,37.67
2022-12-02T18:10:24.812Z,32.30
2022-12-02T18:12:58.259Z,33.90
2022-12-02T18:15:31.774Z,38.83
2022-12-02T18:18:06.898Z,32.38
2022-12-02T18:20:40.445Z,34.63
2022-12-02T18:23:13.900Z,35.20
2022-12-02T18:25:47.305Z,39.63
2022-12-02T18:28:20.821Z,40.20
2022-12-02T18:30:54.371Z,39.40
2022-12-02T18:33:29.186Z,36.20
2022-12-02T18:36:02.722Z,41.78
2022-12-02T18:38:36.367Z,38.35
2022-12-02T18:41:10.123Z,37.75
2022-12-02T18:43:43.611Z,38.35
2022-12-02T18:46:17.150Z,36.40
2022-12-02T18:50:16.586Z,36.45
2022-12-02T18:52:50.747Z,34.95
2022-12-02T18:55:27.323Z,36.85
2022-12-02T18:58:00.775Z,47.70
2022-12-02T19:00:34.240Z,36.78
2022-12-02T19:03:07.868Z,38.85
2022-12-02T19:05:42.755Z,29.20
2022-12-02T19:08:16.313Z,43.00
2022-12-02T19:10:49.873Z,39.70
2022-12-02T19:13:23.316Z,30.25
2022-12-02T19:15:58.250Z,40.67
2022-12-02T19:18:31.695Z,35.40
2022-12-02T19:21:06.834Z,36.92
2022-12-02T19:23:44.464Z,32.75
2022-12-02T19:26:17.878Z,37.78
2022-12-02T19:28:51.668Z,40.05
2022-12-02T19:31:25.107Z,37.08
2022-12-02T19:33:58.612Z,41.20
2022-12-02T19:36:33.412Z,32.17
2022-12-02T19:39:06.838Z,39.40
2022-12-02T19:41:40.244Z,42.40
2022-12-02T19:44:13.760Z,45.33
2022-12-02T19:46:47.224Z,41.85
2022-12-02T19:49:20.732Z,36.80
2022-12-02T19:51:55.542Z,43.72
2022-12-02T19:54:28.998Z,42.22
2022-12-02T19:57:02.424Z,50.15
2022-12-02T19:59:35.829Z,49.88
2022-12-02T20:02:10.233Z,50.17
2022-12-02T20:04:43.736Z,44.25
2022-12-02T20:07:18.760Z,40.92
2022-12-02T20:09:52.257Z,48.67
2022-12-02T20:12:25.969Z,40.17
2022-12-02T20:14:59.460Z,51.20
2022-12-02T20:17:33.168Z,50.70
2022-12-02T20:20:10.070Z,45.55
2022-12-02T20:22:45.638Z,45.80
2022-12-02T20:25:19.414Z,43.97
2022-12-02T20:27:54.837Z,41.67
2022-12-02T20:30:28.765Z,44.20
2022-12-02T20:33:02.442Z,46.90
2022-12-02T20:35:36.194Z,41.13
2022-12-02T20:38:11.296Z,45.85
2022-12-02T20:40:44.841Z,47.05
2022-12-02T20:43:18.381Z,42.20
2022-12-02T20:45:51.889Z,42.97
2022-12-02T20:48:25.481Z,42.05
2022-12-02T20:50:59.114Z,42.42
2022-12-02T20:53:34.164Z,45.45
2022-12-02T20:56:08.145Z,44.65
2022-12-02T21:01:15.204Z,46.75
2022-12-02T21:03:50.935Z,44.40
2022-12-02T21:06:25.613Z,47.63
2022-12-02T21:09:03.160Z,44.03
2022-12-02T21:11:36.714Z,50.28
2022-12-02T21:14:10.348Z,44.63
2022-12-02T21:16:43.991Z,48.72
2022-12-02T21:19:19.160Z,48.70
2022-12-02T21:21:52.791Z,45.30
2022-12-02T21:24:27.810Z,42.78
2022-12-02T21:27:01.492Z,44.70
2022-12-02T21:29:35.098Z,52.47
2022-12-02T21:32:10.468Z,48.05
2022-12-02T21:34:44.012Z,48.90
2022-12-02T21:37:17.740Z,55.15
2022-12-02T21:39:52.801Z,51.92
2022-12-02T21:42:26.392Z,51.40
2022-12-02T21:45:00.100Z,50.30
2022-12-02T21:47:33.768Z,46.72
2022-12-02T21:50:10.579Z,49.22
2022-12-02T21:52:44.217Z,48.20
2022-12-02T21:55:20.278Z,43.63
2022-12-02T21:57:53.970Z,50.15
2022-12-02T22:00:27.875Z,53.33
2022-12-02T22:05:36.548Z,44.33
2022-12-02T22:08:10.322Z,45.75
2022-12-02T22:10:47.510Z,57.40
2022-12-02T22:13:21.006Z,48.58
2022-12-02T22:15:54.459Z,42.78
2022-12-02T22:18:27.958Z,49.85
2022-12-02T22:21:01.723Z,46.75
2022-12-02T22:23:35.239Z,49.50
2022-12-02T22:26:13.619Z,52.13
2022-12-02T22:28:51.586Z,49.05
2022-12-02T22:31:25.231Z,58.33
2022-12-02T22:33:58.814Z,65.00
2022-12-02T22:36:32.439Z,59.08
2022-12-02T22:39:06.331Z,52.28
2022-12-02T22:41:54.331Z,52.60
2022-12-02T22:44:27.706Z,58.00
2022-12-02T22:47:01.121Z,52.65
2022-12-02T22:49:34.705Z,55.00
2022-12-02T22:52:08.115Z,51.97
2022-12-02T22:54:41.567Z,40.78
2022-12-02T22:57:16.486Z,55.92
2022-12-02T22:59:49.943Z,53.67
2022-12-02T23:02:23.401Z,50.25
2022-12-02T23:04:56.875Z,55.25
2022-12-02T23:07:33.005Z,41.28
2022-12-02T23:10:07.863Z,43.08
2022-12-02T23:12:43.183Z,49.15
2022-12-02T23:20:44.460Z,46.22
2022-12-02T23:23:17.893Z,50.28
2022-12-02T23:25:51.362Z,56.45
2022-12-02T23:28:26.219Z,65.60
2022-12-02T23:30:59.668Z,58.58
2022-12-02T23:33:33.228Z,61.10
2022-12-02T23:36:07.373Z,60.38
2022-12-02T23:38:40.739Z,53.88
2022-12-02T23:41:14.174Z,55.72
2022-12-02T23:43:49.078Z,54.63
2022-12-02T23:46:22.503Z,57.42
2022-12-02T23:48:56.084Z,51.63
2022-12-02T23:51:29.547Z,52.38
2022-12-02T23:54:03.014Z,57.63
2022-12-02T23:56:36.491Z,48.42
2022-12-02T23:59:11.469Z,54.00
